Time;durP1;ratioP1;P1;durP2;ratioP2;P2;SDS_P1;SDS_P2;PMS_P1;PMS_P2;Temp;Humidity;BMP_temperature;BMP_pressure;BME280_temperature;BME280_humidity;BME280_pressure;Samples;Min_cycle;Max_cycle;Signal;HPM_P1;HPM_P2
2024/03/08 00:01:59;;;;;;;;;;;;;;;;;;6293687;28;20136;-59
2024/03/08 00:05:03;;;;;;;;;;;;;;;;;;6311888;28;20056;-60
2024/03/08 00:08:09;;;;;;;;;;;;;;;;;;6311414;28;19999;-60
2024/03/08 00:11:14;;;;;;;6.73;2.30;;;;;;;;;;6311515;28;20288;-59
2024/03/08 00:14:17;;;;;;;5.63;3.00;;;;;;;;;;6311102;28;20460;-60
2024/03/08 00:17:22;;;;;;;5.00;2.50;;;;;;;;;;6311773;28;20478;-60
2024/03/08 00:20:26;;;;;;;5.37;2.40;;;;;;;;;;6310745;28;20293;-59
2024/03/08 00:23:33;;;;;;;3.23;2.43;;;;;;;;;;6311122;28;20578;-61
2024/03/08 00:26:37;;;;;;;5.30;2.40;;;;;;;;;;6312037;28;20290;-61
2024/03/08 00:29:41;;;;;;;3.00;2.50;;;;;;;;;;6311120;28;20598;-59
2024/03/08 00:32:45;;;;;;;6.07;2.77;;;;;;;;;;6310481;28;20305;-59
2024/03/08 00:35:49;;;;;;;2.90;2.70;;;;;;;;;;6311458;28;20292;-60
2024/03/08 00:38:54;;;;;;;5.27;2.80;;;;;;;;;;6310657;28;20338;-60
2024/03/08 00:41:58;;;;;;;4.17;2.53;;;;;;;;;;6311222;28;20298;-60
2024/03/08 00:45:02;;;;;;;4.93;2.50;;;;;;;;;;6292295;28;20448;-61
2024/03/08 00:48:07;;;;;;;4.33;2.60;;;;;;;;;;6310587;28;20293;-60
2024/03/08 00:51:11;;;;;;;3.23;2.53;;;;;;;;;;6310727;28;20290;-60
2024/03/08 00:54:17;;;;;;;2.80;2.30;;;;;;;;;;6310256;28;20294;-60
2024/03/08 00:57:21;;;;;;;4.03;2.20;;;;;;;;;;6310634;28;20286;-60
2024/03/08 01:00:25;;;;;;;2.40;2.30;;;;;;;;;;6310185;28;20299;-59
2024/03/08 01:03:31;;;;;;;2.20;2.20;;;;;;;;;;6310118;28;20294;-60
2024/03/08 01:06:35;;;;;;;3.70;2.10;;;;;;;;;;6310588;28;20296;-60
2024/03/08 01:09:40;;;;;;;3.43;2.10;;;;;;;;;;6309930;28;20452;-60
2024/03/08 01:12:45;;;;;;;2.83;2.63;;;;;;;;;;6308626;28;20321;-60
2024/03/08 01:15:49;;;;;;;3.20;2.10;;;;;;;;;;6310084;28;20238;-59
2024/03/08 01:18:52;;;;;;;2.27;2.17;;;;;;;;;;6309453;28;20298;-59
2024/03/08 01:21:57;;;;;;;3.10;2.17;;;;;;;;;;6310166;28;20249;-60
2024/03/08 01:25:04;;;;;;;2.43;2.20;;;;;;;;;;6309895;28;20301;-60
2024/03/08 01:28:09;;;;;;;5.37;2.17;;;;;;;;;;6309579;28;20290;-60
2024/03/08 01:31:13;;;;;;;2.33;1.87;;;;;;;;;;6309758;28;20293;-60
2024/03/08 01:34:17;;;;;;;2.13;2.03;;;;;;;;;;6309118;28;20309;-59
2024/03/08 01:37:21;;;;;;;6.00;2.20;;;;;;;;;;6309836;28;20297;-59
2024/03/08 01:40:26;;;;;;;2.60;2.50;;;;;;;;;;6309480;28;20290;-60
2024/03/08 01:43:30;;;;;;;7.70;2.10;;;;;;;;;;6308816;28;20371;-60
2024/03/08 01:46:34;;;;;;;2.60;2.10;;;;;;;;;;6310136;28;20294;-60
2024/03/08 01:49:39;;;;;;;2.93;1.90;;;;;;;;;;6309478;28;20301;-60
2024/03/08 01:52:43;;;;;;;2.30;2.30;;;;;;;;;;6309020;28;20318;-60
2024/03/08 01:55:50;;;;;;;2.27;2.17;;;;;;;;;;6309519;28;20290;-59
2024/03/08 01:58:54;;;;;;;2.93;2.83;;;;;;;;;;6309089;28;20297;-59
2024/03/08 02:02:02;;;;;;;4.00;2.30;;;;;;;;;;6309444;28;20323;-60
2024/03/08 02:05:08;;;;;;;5.57;2.33;;;;;;;;;;6308855;28;20289;-59
2024/03/08 02:08:14;;;;;;;2.47;2.33;;;;;;;;;;6308839;28;20300;-60
2024/03/08 02:11:20;;;;;;;2.90;2.80;;;;;;;;;;6309343;28;20298;-59
2024/03/08 02:14:24;;;;;;;2.60;2.40;;;;;;;;;;6308825;28;20586;-59
2024/03/08 02:17:30;;;;;;;5.97;2.93;;;;;;;;;;6308592;28;20462;-60
2024/03/08 02:20:35;;;;;;;4.90;2.43;;;;;;;;;;6309045;28;20345;-60
2024/03/08 02:23:40;;;;;;;3.93;2.50;;;;;;;;;;6308510;28;20590;-59
2024/03/08 02:26:43;;;;;;;;;;;;;;;;;;6309855;28;20119;-61
2024/03/08 02:29:47;;;;;;;2.60;2.40;;;;;;;;;;6308959;28;20277;-60
2024/03/08 02:32:51;;;;;;;2.47;2.33;;;;;;;;;;6308782;28;20285;-60
2024/03/08 02:35:56;;;;;;;3.13;2.40;;;;;;;;;;6309147;28;20290;-59
2024/03/08 02:39:01;;;;;;;2.50;2.40;;;;;;;;;;6308573;28;20297;-60
2024/03/08 02:42:05;;;;;;;3.40;2.93;;;;;;;;;;6309090;28;20296;-61
2024/03/08 02:45:10;;;;;;;2.53;2.43;;;;;;;;;;6308710;28;20288;-60
2024/03/08 02:48:14;;;;;;;5.33;2.60;;;;;;;;;;6308392;28;20318;-60
2024/03/08 02:51:20;;;;;;;2.50;2.30;;;;;;;;;;6308991;28;20301;-60
2024/03/08 02:54:25;;;;;;;6.13;2.30;;;;;;;;;;6310459;28;20298;-60
2024/03/08 02:57:28;;;;;;;2.47;2.43;;;;;;;;;;6312685;28;20294;-60
2024/03/08 03:00:32;;;;;;;2.50;2.30;;;;;;;;;;6313270;28;20305;-60
2024/03/08 03:03:37;;;;;;;2.50;2.20;;;;;;;;;;6312855;28;20298;-60
2024/03/08 03:06:43;;;;;;;4.13;2.37;;;;;;;;;;6312588;28;20266;-62
2024/03/08 03:09:47;;;;;;;2.77;2.50;;;;;;;;;;6312956;28;20294;-60
2024/03/08 03:12:51;;;;;;;3.43;2.40;;;;;;;;;;6312782;28;20310;-60
2024/03/08 03:15:57;;;;;;;6.57;2.30;;;;;;;;;;6313271;28;20257;-60
2024/03/08 03:19:02;;;;;;;2.00;2.00;;;;;;;;;;6312740;28;20306;-60
2024/03/08 03:22:09;;;;;;;3.90;2.23;;;;;;;;;;6312558;28;20296;-59
2024/03/08 03:25:14;;;;;;;2.30;2.10;;;;;;;;;;6311731;28;20298;-60
2024/03/08 03:28:21;;;;;;;9.63;2.40;;;;;;;;;;6311972;28;20304;-59
2024/03/08 03:31:25;;;;;;;4.23;2.30;;;;;;;;;;6312518;28;20293;-60
2024/03/08 03:34:29;;;;;;;3.57;2.23;;;;;;;;;;6312172;28;20308;-60
2024/03/08 03:37:34;;;;;;;2.70;2.50;;;;;;;;;;6311779;28;20286;-59
2024/03/08 03:40:38;;;;;;;2.20;2.10;;;;;;;;;;6312388;28;20292;-60
2024/03/08 03:43:43;;;;;;;2.47;2.33;;;;;;;;;;6311954;28;20296;-60
2024/03/08 03:46:47;;;;;;;2.20;2.10;;;;;;;;;;6312568;28;20309;-59
2024/03/08 03:49:53;;;;;;;2.17;2.10;;;;;;;;;;6311978;28;20300;-59
2024/03/08 03:52:58;;;;;;;2.10;2.10;;;;;;;;;;6311376;28;20611;-59
2024/03/08 03:56:02;;;;;;;2.00;2.00;;;;;;;;;;6312190;28;20285;-60
2024/03/08 03:59:06;;;;;;;2.20;2.20;;;;;;;;;;6311506;28;20294;-59
2024/03/08 04:02:10;;;;;;;2.50;2.40;;;;;;;;;;6295459;28;20294;-62
2024/03/08 04:05:14;;;;;;;2.57;2.47;;;;;;;;;;6301647;28;20316;-60
2024/03/08 04:08:19;;;;;;;4.30;1.93;;;;;;;;;;6311015;28;20383;-60
2024/03/08 04:11:23;;;;;;;2.83;2.53;;;;;;;;;;6311526;28;20440;-60
2024/03/08 04:14:27;;;;;;;3.37;2.13;;;;;;;;;;6311010;28;20564;-60
2024/03/08 04:17:31;;;;;;;2.57;2.43;;;;;;;;;;6311444;28;20284;-60
2024/03/08 04:20:35;;;;;;;2.37;2.30;;;;;;;;;;6310563;28;20301;-60
2024/03/08 04:23:40;;;;;;;2.67;2.50;;;;;;;;;;6310682;28;20294;-61
2024/03/08 04:26:44;;;;;;;6.40;2.60;;;;;;;;;;6311067;28;20296;-60
2024/03/08 04:29:48;;;;;;;2.53;2.37;;;;;;;;;;6310318;28;20290;-60
2024/03/08 04:32:52;;;;;;;2.73;2.63;;;;;;;;;;6310517;28;20302;-60
2024/03/08 04:35:57;;;;;;;2.37;2.33;;;;;;;;;;6292184;28;20298;-60
2024/03/08 04:39:04;;;;;;;2.70;2.50;;;;;;;;;;6310451;28;20296;-59
2024/03/08 04:42:10;;;;;;;2.93;2.67;;;;;;;;;;6310760;28;20481;-60
2024/03/08 04:45:14;;;;;;;2.30;2.20;;;;;;;;;;6310326;28;20310;-60
2024/03/08 04:48:18;;;;;;;5.53;2.80;;;;;;;;;;6310282;28;20297;-59
2024/03/08 04:51:22;;;;;;;2.73;2.33;;;;;;;;;;6310372;28;20288;-60
2024/03/08 04:54:27;;;;;;;4.37;2.57;;;;;;;;;;6309692;28;20512;-59
2024/03/08 04:57:31;;;;;;;6.77;2.33;;;;;;;;;;6310603;28;20474;-59
2024/03/08 05:00:35;;;;;;;5.50;2.70;;;;;;;;;;6310053;28;20319;-59
2024/03/08 05:03:39;;;;;;;7.90;2.37;;;;;;;;;;6309918;28;20472;-59
2024/03/08 05:06:43;;;;;;;6.33;2.70;;;;;;;;;;6309481;28;20272;-61
2024/03/08 05:09:51;;;;;;;3.07;2.37;;;;;;;;;;6309193;28;20305;-61
2024/03/08 05:12:55;;;;;;;7.07;2.70;;;;;;;;;;6309844;28;20292;-61
2024/03/08 05:16:00;;;;;;;4.30;2.23;;;;;;;;;;6310061;28;20265;-61
2024/03/08 05:19:04;;;;;;;6.20;2.80;;;;;;;;;;6309434;28;20454;-61
2024/03/08 05:22:08;;;;;;;2.80;2.60;;;;;;;;;;6310238;28;20289;-62
2024/03/08 05:25:14;;;;;;;5.37;2.47;;;;;;;;;;6301388;28;20464;-59
2024/03/08 05:28:19;;;;;;;3.30;3.00;;;;;;;;;;6284924;28;20294;-60
2024/03/08 05:31:23;;;;;;;6.17;2.87;;;;;;;;;;6285745;28;20297;-60
2024/03/08 05:34:28;;;;;;;2.67;2.57;;;;;;;;;;6285032;28;20297;-61
2024/03/08 05:37:32;;;;;;;6.67;2.87;;;;;;;;;;6267497;28;20292;-60
2024/03/08 05:40:38;;;;;;;3.60;2.77;;;;;;;;;;6284917;28;20469;-60
2024/03/08 05:43:42;;;;;;;7.30;2.67;;;;;;;;;;6284702;28;20301;-60
2024/03/08 05:46:46;;;;;;;3.90;2.50;;;;;;;;;;6285109;28;20297;-61
2024/03/08 05:49:53;;;;;;;5.27;2.90;;;;;;;;;;6284728;28;20302;-60
2024/03/08 05:52:57;;;;;;;4.43;2.63;;;;;;;;;;6284559;28;20307;-60
2024/03/08 05:56:03;;;;;;;3.50;2.70;;;;;;;;;;6284937;28;20313;-61
2024/03/08 05:59:07;;;;;;;3.27;2.97;;;;;;;;;;6284054;28;20295;-59
2024/03/08 06:02:11;;;;;;;3.87;2.60;;;;;;;;;;6284377;28;20311;-60
2024/03/08 06:05:15;;;;;;;3.57;3.33;;;;;;;;;;6284482;28;20295;-60
2024/03/08 06:08:19;;;;;;;6.10;3.10;;;;;;;;;;6284256;28;20304;-60
2024/03/08 06:11:26;;;;;;;3.83;3.07;;;;;;;;;;6301298;28;20289;-60
2024/03/08 06:14:30;;;;;;;2.90;2.80;;;;;;;;;;6308612;28;20474;-60
2024/03/08 06:17:34;;;;;;;3.40;3.10;;;;;;;;;;6309681;28;20293;-59
2024/03/08 06:20:38;;;;;;;3.13;2.90;;;;;;;;;;6308829;28;20297;-60
2024/03/08 06:23:42;;;;;;;2.83;2.70;;;;;;;;;;6308853;28;20294;-60
2024/03/08 06:26:48;;;;;;;5.43;3.20;;;;;;;;;;6309603;28;20496;-59
2024/03/08 06:29:52;;;;;;;7.23;3.07;;;;;;;;;;6311580;28;20595;-60
2024/03/08 06:32:56;;;;;;;3.23;2.93;;;;;;;;;;6295323;28;20306;-59
2024/03/08 06:36:00;;;;;;;8.53;3.13;;;;;;;;;;6314061;28;20294;-59
2024/03/08 06:39:08;;;;;;;3.43;2.60;;;;;;;;;;6294858;28;20433;-59
2024/03/08 06:42:15;;;;;;;3.97;3.10;;;;;;;;;;6314159;28;20302;-59
2024/03/08 06:45:20;;;;;;;4.27;2.77;;;;;;;;;;6313442;28;20304;-60
2024/03/08 06:48:25;;;;;;;6.23;2.90;;;;;;;;;;6313211;28;20334;-60
2024/03/08 06:51:29;;;;;;;6.27;3.00;;;;;;;;;;6313909;28;20297;-60
2024/03/08 06:54:33;;;;;;;3.63;3.10;;;;;;;;;;6312947;28;20526;-59
2024/03/08 06:57:38;;;;;;;3.30;3.03;;;;;;;;;;6313750;28;20305;-60
2024/03/08 07:00:42;;;;;;;4.70;3.20;;;;;;;;;;6312552;28;20423;-59
2024/03/08 07:03:48;;;;;;;3.47;3.10;;;;;;;;;;6313110;28;20302;-59
2024/03/08 07:06:52;;;;;;;4.07;3.03;;;;;;;;;;6313785;28;20248;-60
2024/03/08 07:09:56;;;;;;;3.87;2.73;;;;;;;;;;6312544;28;20303;-60
2024/03/08 07:13:02;;;;;;;3.97;2.80;;;;;;;;;;6312897;28;20242;-60
2024/03/08 07:16:07;;;;;;;3.33;3.03;;;;;;;;;;6294923;28;20455;-59
2024/03/08 07:19:12;;;;;;;4.10;2.90;;;;;;;;;;6312624;28;20333;-60
2024/03/08 07:22:15;;;;;;;4.00;3.10;;;;;;;;;;6312877;28;20321;-59
2024/03/08 07:25:23;;;;;;;2.93;2.80;;;;;;;;;;6312363;28;20469;-60
2024/03/08 07:28:30;;;;;;;3.40;3.20;;;;;;;;;;6294600;28;20396;-60
2024/03/08 07:31:45;;;;;;;3.10;2.90;;;;;;;;;;6312863;28;20289;-61
2024/03/08 07:34:50;;;;;;;3.33;3.00;;;;;;;;;;6312543;28;20290;-61
2024/03/08 07:37:54;;;;;;;7.03;3.40;;;;;;;;;;6312182;28;20294;-60
2024/03/08 07:40:58;;;;;;;3.10;2.87;;;;;;;;;;6312389;28;20297;-60
2024/03/08 07:44:03;;;;;;;3.40;3.10;;;;;;;;;;6311512;28;20302;-61
2024/03/08 07:47:09;;;;;;;5.77;3.27;;;;;;;;;;6312504;28;20317;-61
2024/03/08 07:50:16;;;;;;;5.03;2.77;;;;;;;;;;6311491;28;20582;-60
2024/03/08 07:53:20;;;;;;;4.97;3.30;;;;;;;;;;6311722;28;20282;-60
2024/03/08 07:56:25;;;;;;;4.40;3.17;;;;;;;;;;6312039;28;20299;-61
2024/03/08 07:59:30;;;;;;;7.17;3.00;;;;;;;;;;6293105;28;20542;-61
2024/03/08 08:02:35;;;;;;;4.37;3.17;;;;;;;;;;6311772;28;20288;-61
2024/03/08 08:05:43;;;;;;;3.23;2.93;;;;;;;;;;6311203;28;20302;-59
2024/03/08 08:08:47;;;;;;;4.27;3.20;;;;;;;;;;6311036;28;20302;-60
2024/03/08 08:11:51;;;;;;;3.60;3.17;;;;;;;;;;6311792;28;20314;-59
2024/03/08 08:14:56;;;;;;;5.97;2.90;;;;;;;;;;6311145;28;20408;-59
2024/03/08 08:18:00;;;;;;;3.37;2.93;;;;;;;;;;6310827;28;20298;-59
2024/03/08 08:21:06;;;;;;;3.63;3.27;;;;;;;;;;6311385;28;20307;-60
2024/03/08 08:24:10;;;;;;;5.07;3.30;;;;;;;;;;6310536;28;20295;-60
2024/03/08 08:27:14;;;;;;;4.93;3.10;;;;;;;;;;6311450;28;20572;-60
2024/03/08 08:30:20;;;;;;;3.83;3.20;;;;;;;;;;6310553;28;20298;-61
2024/03/08 08:33:25;;;;;;;4.33;3.47;;;;;;;;;;6310634;28;20299;-60
2024/03/08 08:36:31;;;;;;;5.60;2.93;;;;;;;;;;6311094;28;20299;-60
2024/03/08 08:39:34;;;;;;;5.07;3.30;;;;;;;;;;6310451;28;20290;-61
2024/03/08 08:42:38;;;;;;;6.53;3.20;;;;;;;;;;6310579;28;20302;-60
2024/03/08 08:45:44;;;;;;;5.90;3.50;;;;;;;;;;6309143;28;20285;-59
2024/03/08 08:48:47;;;;;;;3.43;3.13;;;;;;;;;;6310137;28;20642;-60
2024/03/08 08:51:51;;;;;;;3.27;3.00;;;;;;;;;;6309920;28;20320;-60
2024/03/08 08:54:57;;;;;;;8.70;3.07;;;;;;;;;;6310305;28;20559;-60
2024/03/08 08:58:03;;;;;;;4.17;3.13;;;;;;;;;;6310156;28;20311;-60
2024/03/08 09:01:09;;;;;;;3.70;3.40;;;;;;;;;;6310739;28;20297;-59
2024/03/08 09:04:14;;;;;;;6.73;3.73;;;;;;;;;;6310170;28;20279;-61
2024/03/08 09:07:18;;;;;;;9.23;3.53;;;;;;;;;;6310650;28;20292;-59
2024/03/08 09:10:23;;;;;;;6.83;2.97;;;;;;;;;;6310339;28;20295;-60
2024/03/08 09:13:34;;;;;;;6.90;3.37;;;;;;;;;;6309931;28;20557;-59
2024/03/08 09:16:39;;;;;;;8.60;3.40;;;;;;;;;;6310173;28;20313;-59
2024/03/08 09:19:43;;;;;;;9.20;3.60;;;;;;;;;;6309770;28;20286;-59
2024/03/08 09:22:47;;;;;;;6.70;3.20;;;;;;;;;;6309543;28;20300;-60
2024/03/08 09:25:51;;;;;;;4.87;3.07;;;;;;;;;;6310036;28;20373;-60
2024/03/08 09:28:55;;;;;;;8.93;3.20;;;;;;;;;;6309522;28;20298;-60
2024/03/08 09:32:01;;;;;;;10.13;3.30;;;;;;;;;;6310203;28;20295;-61
2024/03/08 09:35:07;;;;;;;7.33;3.37;;;;;;;;;;6309612;28;20294;-59
2024/03/08 09:38:13;;;;;;;5.73;3.00;;;;;;;;;;6309282;28;20322;-62
2024/03/08 09:41:17;;;;;;;16.60;2.93;;;;;;;;;;6309574;28;20300;-60
2024/03/08 09:44:21;;;;;;;8.33;3.20;;;;;;;;;;6309196;28;20293;-59
2024/03/08 09:47:33;;;;;;;5.03;3.17;;;;;;;;;;6309491;28;20517;-59
2024/03/08 09:50:38;;;;;;;5.10;3.23;;;;;;;;;;6309166;28;20303;-61
2024/03/08 09:53:42;;;;;;;6.83;3.03;;;;;;;;;;6309382;28;20494;-60
2024/03/08 09:56:46;;;;;;;6.63;2.60;;;;;;;;;;6309424;28;20312;-60
2024/03/08 09:59:50;;;;;;;4.90;3.40;;;;;;;;;;6309127;28;20300;-61
2024/03/08 10:02:55;;;;;;;7.10;2.83;;;;;;;;;;6309254;28;20308;-60
2024/03/08 10:06:00;;;;;;;3.67;2.47;;;;;;;;;;6314811;28;20291;-60
2024/03/08 10:09:05;;;;;;;9.33;2.90;;;;;;;;;;6313979;28;20305;-60
2024/03/08 10:12:11;;;;;;;7.90;3.20;;;;;;;;;;6313968;28;20293;-60
2024/03/08 10:15:17;;;;;;;4.07;2.80;;;;;;;;;;6313601;28;20281;-60
2024/03/08 10:18:23;;;;;;;3.47;2.90;;;;;;;;;;6313802;28;20373;-60
2024/03/08 10:21:28;;;;;;;8.77;2.50;;;;;;;;;;6313891;28;20545;-60
2024/03/08 10:24:33;;;;;;;2.50;2.33;;;;;;;;;;6314067;28;20611;-61
2024/03/08 10:27:39;;;;;;;2.20;2.10;;;;;;;;;;6314472;28;20291;-60
2024/03/08 10:30:48;;;;;;;3.57;2.73;;;;;;;;;;6312797;28;20282;-60
2024/03/08 10:33:54;;;;;;;3.37;2.27;;;;;;;;;;6313784;28;20572;-60
2024/03/08 10:37:04;;;;;;;2.47;1.90;;;;;;;;;;6313618;28;20267;-59
2024/03/08 10:40:15;;;;;;;8.90;3.30;;;;;;;;;;6313547;28;20289;-61
2024/03/08 10:43:25;;;;;;;2.83;2.20;;;;;;;;;;6313262;28;20312;-61
2024/03/08 10:46:35;;;;;;;2.33;2.23;;;;;;;;;;6295370;28;20334;-61
2024/03/08 10:49:45;;;;;;;3.07;2.40;;;;;;;;;;6313190;28;20321;-61
2024/03/08 10:52:50;;;;;;;2.50;2.40;;;;;;;;;;6312694;28;20573;-60
2024/03/08 10:55:55;;;;;;;2.47;2.27;;;;;;;;;;6313260;28;20336;-60
2024/03/08 10:58:59;;;;;;;2.40;2.30;;;;;;;;;;6312942;28;20312;-61
2024/03/08 11:02:04;;;;;;;4.47;2.20;;;;;;;;;;6313392;28;20292;-60
2024/03/08 11:05:13;;;;;;;2.80;2.60;;;;;;;;;;6313334;28;20313;-59
2024/03/08 11:08:19;;;;;;;6.53;2.57;;;;;;;;;;6312401;28;20298;-61
2024/03/08 11:11:30;;;;;;;3.57;2.37;;;;;;;;;;6313317;28;20617;-62
2024/03/08 11:14:45;;;;;;;3.80;2.33;;;;;;;;;;6312176;28;20289;-59
2024/03/08 11:17:49;;;;;;;3.30;2.43;;;;;;;;;;6312259;28;20296;-60
2024/03/08 11:20:57;;;;;;;3.00;2.40;;;;;;;;;;6313276;28;20293;-60
2024/03/08 11:24:01;;;;;;;3.13;2.03;;;;;;;;;;6293781;28;20477;-60
2024/03/08 11:27:06;;;;;;;2.30;2.20;;;;;;;;;;6313199;28;20302;-61
2024/03/08 11:30:11;;;;;;;4.30;2.27;;;;;;;;;;6312228;28;20587;-60
2024/03/08 11:33:21;;;;;;;5.60;2.67;;;;;;;;;;6312385;28;20546;-60
2024/03/08 11:36:26;;;;;;;2.30;2.10;;;;;;;;;;6313170;28;20293;-59
2024/03/08 11:39:31;;;;;;;2.27;2.03;;;;;;;;;;6309774;28;20306;-60
2024/03/08 11:42:37;;;;;;;3.53;2.10;;;;;;;;;;6293965;28;20602;-61
2024/03/08 11:45:41;;;;;;;5.57;2.63;;;;;;;;;;6311943;28;20594;-60
2024/03/08 11:48:48;;;;;;;3.40;2.20;;;;;;;;;;6311614;28;20404;-60
2024/03/08 11:51:54;;;;;;;2.20;2.10;;;;;;;;;;6294183;28;20262;-60
2024/03/08 11:54:58;;;;;;;1.90;1.90;;;;;;;;;;6311679;28;20294;-60
2024/03/08 11:58:03;;;;;;;5.13;2.10;;;;;;;;;;6311586;28;20302;-60
2024/03/08 12:01:09;;;;;;;2.27;1.97;;;;;;;;;;6311829;28;20462;-60
2024/03/08 12:04:13;;;;;;;6.53;2.63;;;;;;;;;;6311579;28;20286;-60
2024/03/08 12:07:18;;;;;;;3.10;2.07;;;;;;;;;;6311745;28;20403;-59
2024/03/08 12:10:24;;;;;;;4.13;2.27;;;;;;;;;;6311395;28;20333;-60
2024/03/08 12:13:30;;;;;;;4.85;2.70;;;;;;;;;;6309878;28;20596;-61
2024/03/08 12:16:34;;;;;;;2.27;2.17;;;;;;;;;;6312063;28;20302;-60
2024/03/08 12:19:39;;;;;;;4.87;2.20;;;;;;;;;;6311160;28;20598;-60
2024/03/08 12:22:45;;;;;;;2.50;2.23;;;;;;;;;;6311067;28;20297;-60
2024/03/08 12:25:49;;;;;;;3.70;2.30;;;;;;;;;;6292962;28;20591;-60
2024/03/08 12:28:53;;;;;;;2.47;2.23;;;;;;;;;;6310629;28;20302;-60
2024/03/08 12:32:00;;;;;;;2.23;2.10;;;;;;;;;;6311181;28;20290;-60
2024/03/08 12:35:10;;;;;;;2.40;1.80;;;;;;;;;;6310662;28;20297;-59
2024/03/08 12:38:16;;;;;;;1.90;1.80;;;;;;;;;;6310259;28;20301;-59
2024/03/08 12:41:21;;;;;;;4.13;2.40;;;;;;;;;;6311088;28;20293;-60
2024/03/08 12:44:25;;;;;;;2.60;2.10;;;;;;;;;;6310312;28;20290;-60
2024/03/08 12:47:31;;;;;;;5.60;2.10;;;;;;;;;;6311141;28;20599;-60
2024/03/08 12:50:35;;;;;;;2.33;2.30;;;;;;;;;;6310202;28;20341;-60
2024/03/08 12:53:44;;;;;;;5.10;2.17;;;;;;;;;;6310198;28;20298;-60
2024/03/08 12:56:47;;;;;;;6.10;2.27;;;;;;;;;;6293110;28;20295;-60
2024/03/08 12:59:53;;;;;;;9.63;2.20;;;;;;;;;;6310079;28;20302;-60
2024/03/08 13:02:58;;;;;;;3.70;2.00;;;;;;;;;;6310243;28;20482;-60
2024/03/08 13:06:03;;;;;;;2.33;2.13;;;;;;;;;;6310601;28;20302;-60
2024/03/08 13:09:08;;;;;;;2.40;2.30;;;;;;;;;;6310128;28;20499;-60
2024/03/08 13:12:12;;;;;;;3.47;2.10;;;;;;;;;;6310530;28;20590;-60
2024/03/08 13:15:20;;;;;;;2.33;2.10;;;;;;;;;;6291552;28;20292;-60
2024/03/08 13:18:25;;;;;;;3.43;2.20;;;;;;;;;;6309527;28;20223;-60
2024/03/08 13:21:30;;;;;;;5.28;2.67;;;;;;;;;;6308703;28;20891;-61
2024/03/08 13:24:35;;;;;;;2.70;2.50;;;;;;;;;;6309562;28;20591;-60
2024/03/08 13:27:40;;;;;;;12.18;2.08;;;;;;;;;;6291747;28;20298;-59
2024/03/08 13:30:45;;;;;;;4.57;2.30;;;;;;;;;;6308673;28;20492;-60
2024/03/08 13:33:51;;;;;;;5.13;2.30;;;;;;;;;;6309215;28;20298;-60
2024/03/08 13:37:00;;;;;;;5.43;2.27;;;;;;;;;;6309877;28;20231;-60
2024/03/08 13:40:10;;;;;;;4.67;2.20;;;;;;;;;;6309108;28;20294;-60
2024/03/08 13:43:14;;;;;;;6.30;1.90;;;;;;;;;;6309491;28;20301;-59
2024/03/08 13:46:18;;;;;;;3.50;1.93;;;;;;;;;;6309549;28;20290;-59
2024/03/08 13:49:22;;;;;;;4.03;2.10;;;;;;;;;;6309555;28;20306;-60
2024/03/08 13:52:29;;;;;;;4.07;2.20;;;;;;;;;;6309807;28;20294;-60
2024/03/08 13:55:34;;;;;;;6.17;2.13;;;;;;;;;;6309303;28;20290;-60
2024/03/08 13:58:39;;;;;;;4.30;2.80;;;;;;;;;;6309233;28;20299;-59
2024/03/08 14:01:43;;;;;;;3.33;2.10;;;;;;;;;;6310010;28;20289;-59
2024/03/08 14:04:49;;;;;;;2.40;2.20;;;;;;;;;;6309298;28;20298;-61
2024/03/08 14:07:54;;;;;;;7.13;2.30;;;;;;;;;;6308973;28;20574;-60
2024/03/08 14:11:01;;;;;;;2.33;2.17;;;;;;;;;;6309853;28;20298;-61
2024/03/08 14:14:05;;;;;;;2.43;2.23;;;;;;;;;;6308888;28;20478;-60
2024/03/08 14:17:10;;;;;;;1.97;1.80;;;;;;;;;;6309800;28;20294;-61
2024/03/08 14:20:15;;;;;;;2.85;2.20;;;;;;;;;;6308834;28;20302;-60
2024/03/08 14:23:20;;;;;;;3.67;2.27;;;;;;;;;;6308523;28;20377;-60
2024/03/08 14:26:26;;;;;;;4.30;2.23;;;;;;;;;;6309414;28;20298;-60
2024/03/08 14:29:32;;;;;;;;;;;;;;;;;;6309397;28;20120;-60
2024/03/08 14:32:38;;;;;;;;;;;;;;;;;;6309796;28;20272;-61
2024/03/08 14:35:42;;;;;;;1.90;1.90;;;;;;;;;;6308715;28;19983;-61
2024/03/08 14:38:47;;;;;;;1.90;1.80;;;;;;;;;;6308650;28;20290;-60
2024/03/08 14:41:53;;;;;;;4.10;2.10;;;;;;;;;;6309357;28;20298;-61
2024/03/08 14:44:57;;;;;;;2.17;2.07;;;;;;;;;;6308793;28;20298;-60
2024/03/08 14:48:02;;;;;;;4.05;2.15;;;;;;;;;;6308659;28;20291;-59
2024/03/08 14:51:10;;;;;;;5.13;2.33;;;;;;;;;;6312223;28;20306;-59
2024/03/08 14:54:14;;;;;;;4.53;2.50;;;;;;;;;;6313202;28;20602;-60
2024/03/08 14:57:19;;;;;;;2.57;2.47;;;;;;;;;;6313740;28;20294;-59
2024/03/08 15:00:33;;;;;;;2.57;2.33;;;;;;;;;;6294523;28;20278;-61
2024/03/08 15:03:38;;;;;;;2.47;2.20;;;;;;;;;;6313294;28;20314;-61
2024/03/08 15:06:42;;;;;;;3.00;2.70;;;;;;;;;;6312688;28;20313;-62
2024/03/08 15:09:46;;;;;;;4.93;2.50;;;;;;;;;;6312817;28;20306;-59
2024/03/08 15:12:55;;;;;;;2.77;2.57;;;;;;;;;;6312702;28;20252;-59
2024/03/08 15:16:00;;;;;;;2.60;2.40;;;;;;;;;;6313175;28;20238;-59
2024/03/08 15:19:05;;;;;;;2.70;2.60;;;;;;;;;;6312594;28;20369;-60
2024/03/08 15:22:09;;;;;;;5.33;3.10;;;;;;;;;;6313146;28;20543;-61
2024/03/08 15:25:20;;;;;;;2.70;2.53;;;;;;;;;;6312693;28;20289;-60
2024/03/08 15:28:33;;;;;;;8.23;2.50;;;;;;;;;;6312660;28;20380;-60
2024/03/08 15:31:38;;;;;;;2.97;2.60;;;;;;;;;;6313001;28;20282;-61
2024/03/08 15:34:43;;;;;;;2.30;2.20;;;;;;;;;;6312506;28;20296;-59
2024/03/08 15:37:47;;;;;;;3.07;2.40;;;;;;;;;;6294312;28;20480;-61
2024/03/08 15:40:52;;;;;;;;;;;;;;;;;;6312983;28;20340;-60
2024/03/08 15:43:56;;;;;;;;;;;;;;;;;;6312751;28;20036;-60
2024/03/08 15:47:00;;;;;;;5.67;2.57;;;;;;;;;;6312569;28;19975;-60
2024/03/08 15:50:11;;;;;;;2.30;2.30;;;;;;;;;;6312340;28;20296;-60
2024/03/08 15:53:15;;;;;;;4.60;2.47;;;;;;;;;;6312043;28;20299;-61
2024/03/08 15:56:19;;;;;;;2.80;2.60;;;;;;;;;;6312395;28;20578;-60
2024/03/08 15:59:26;;;;;;;2.77;2.63;;;;;;;;;;6312065;28;20314;-60
2024/03/08 16:02:30;;;;;;;3.17;2.40;;;;;;;;;;6311065;28;20539;-60
2024/03/08 16:05:34;;;;;;;3.03;2.83;;;;;;;;;;6312024;28;20631;-60
2024/03/08 16:08:39;;;;;;;7.73;2.63;;;;;;;;;;6311575;28;20611;-61
2024/03/08 16:11:44;;;;;;;2.80;2.60;;;;;;;;;;6312269;28;20313;-60
2024/03/08 16:14:51;;;;;;;2.57;2.37;;;;;;;;;;6311757;28;20292;-60
2024/03/08 16:17:55;;;;;;;2.70;2.50;;;;;;;;;;6311369;28;20290;-60
2024/03/08 16:20:59;;;;;;;;;;;;;;;;;;6312042;28;20179;-61
2024/03/08 16:24:03;;;;;;;2.83;2.57;;;;;;;;;;6310518;28;20585;-60
2024/03/08 16:27:07;;;;;;;2.20;2.20;;;;;;;;;;6311546;28;20289;-60
2024/03/08 16:30:15;;;;;;;2.55;2.35;;;;;;;;;;6311031;28;20472;-60
2024/03/08 16:33:19;;;;;;;2.70;2.60;;;;;;;;;;6310764;28;20305;-60
2024/03/08 16:36:23;;;;;;;2.23;2.23;;;;;;;;;;6311455;28;20286;-62
2024/03/08 16:39:28;;;;;;;3.07;1.97;;;;;;;;;;6310631;28;20294;-59
2024/03/08 16:42:32;;;;;;;3.03;1.90;;;;;;;;;;6310989;28;20303;-60
2024/03/08 16:45:38;;;;;;;2.30;2.10;;;;;;;;;;6310312;28;20394;-59
2024/03/08 16:48:42;;;;;;;2.67;2.17;;;;;;;;;;6309564;28;20289;-60
2024/03/08 16:51:47;;;;;;;2.37;2.37;;;;;;;;;;6310622;28;20251;-60
2024/03/08 16:54:51;;;;;;;2.70;2.60;;;;;;;;;;6310112;28;20295;-61
2024/03/08 16:58:14;;;;;;;2.13;1.80;;;;;;;;;;6309775;28;20293;-60
2024/03/08 17:01:20;;;;;;;;;;;;;;;;;;6311106;28;20372;-61
2024/03/08 17:04:26;;;;;;;2.80;2.73;;;;;;;;;;6310024;28;19987;-61
2024/03/08 17:07:31;;;;;;;2.70;1.87;;;;;;;;;;6310115;28;20313;-61
2024/03/08 17:10:36;;;;;;;3.13;1.93;;;;;;;;;;6303259;28;20329;-60
2024/03/08 17:13:40;;;;;;;3.57;1.93;;;;;;;;;;6309449;28;20293;-59
2024/03/08 17:16:46;;;;;;;1.70;1.70;;;;;;;;;;6310457;28;20290;-58
2024/03/08 17:19:50;;;;;;;2.00;2.00;;;;;;;;;;6309510;28;20565;-58
2024/03/08 17:22:55;;;;;;;3.70;1.70;;;;;;;;;;6309396;28;20298;-59
2024/03/08 17:26:02;;;;;;;1.80;1.80;;;;;;;;;;6304048;28;20290;-59
2024/03/08 17:29:07;;;;;;;1.63;1.63;;;;;;;;;;6284063;28;20294;-60
2024/03/08 17:32:14;;;;;;;1.80;1.80;;;;;;;;;;6284897;28;20317;-60
2024/03/08 17:35:19;;;;;;;4.10;1.83;;;;;;;;;;6284445;28;20293;-59
2024/03/08 17:38:24;;;;;;;;;;;;;;;;;;6285315;28;20108;-60
2024/03/08 17:41:27;;;;;;;;;;;;;;;;;;6285020;28;19984;-60
2024/03/08 17:44:31;;;;;;;;;;;;;;;;;;6282465;28;19992;-60
2024/03/08 17:47:40;;;;;;;2.00;2.00;;;;;;;;;;6284918;28;20287;-60
2024/03/08 17:50:44;;;;;;;;;;;;;;;;;;6284269;28;20327;-60
2024/03/08 17:53:50;;;;;;;2.30;2.20;;;;;;;;;;6283877;28;20333;-60
2024/03/08 17:56:55;;;;;;;2.00;1.90;;;;;;;;;;6284632;28;20298;-62
2024/03/08 17:59:58;;;;;;;2.13;2.07;;;;;;;;;;6283931;28;20310;-60
2024/03/08 18:03:05;;;;;;;2.03;1.80;;;;;;;;;;6284321;28;20304;-60
2024/03/08 18:06:09;;;;;;;2.60;2.40;;;;;;;;;;6284378;28;20338;-59
2024/03/08 18:09:13;;;;;;;2.13;2.10;;;;;;;;;;6283814;28;20306;-59
2024/03/08 18:12:17;;;;;;;2.60;1.90;;;;;;;;;;6308187;28;20291;-60
2024/03/08 18:15:25;;;;;;;1.80;1.70;;;;;;;;;;6308955;28;20307;-60
2024/03/08 18:18:31;;;;;;;1.90;1.90;;;;;;;;;;6308557;28;20307;-61
2024/03/08 18:21:36;;;;;;;1.73;1.73;;;;;;;;;;6309688;28;20313;-60
2024/03/08 18:24:41;;;;;;;4.83;2.37;;;;;;;;;;6309714;28;20288;-60
2024/03/08 18:27:45;;;;;;;2.03;1.87;;;;;;;;;;6313894;28;20577;-61
2024/03/08 18:30:51;;;;;;;2.97;2.33;;;;;;;;;;6314159;28;20300;-60
2024/03/08 18:33:56;;;;;;;2.17;2.10;;;;;;;;;;6313237;28;20309;-60
2024/03/08 18:37:00;;;;;;;2.10;2.00;;;;;;;;;;6313980;28;20289;-61